Terminal Aerodrome Forecast
Issued by NWS Cleveland, OH

Home | Current Version | Previous Version | Graphics & Text | Print | Product List | Glossary Off
Versions: 1 2 3 4 5 6 7 8 9 10 11 12 13 14 15 16 17 18 19 20 21 22 23 24 25 26 27

000
FTUS41 KCLE 300306 AAB
TAFCLE
TAF AMD
KCLE 300306Z 3003/3106 14004KT P6SM VCSH SCT070 OVC100
      TEMPO 3003/3006 VRB05KT 5SM -SHRA BKN060 OVC100
     FM300900 18005KT 6SM BR VCSH BKN060 OVC080
     FM301400 25005KT P6SM VCSH BKN060 OVC080
     FM302200 22005KT P6SM SCT060 BKN200=

USA.gov is the U.S. government's official web portal to all federal, state and local government web resources and services.